Time;durP1;ratioP1;P1;durP2;ratioP2;P2;SDS_P1;SDS_P2;PMS_P1;PMS_P2;Temp;Humidity;BMP_temperature;BMP_pressure;BME280_temperature;BME280_humidity;BME280_pressure;Samples;Min_cycle;Max_cycle;Signal;HPM_P1;HPM_P2
2023/03/08 00:01:15;;;;;;;11.97;10.90;;;;;;;-141.22;100.00;65034.22;4954906;28;20474;-45
2023/03/08 00:03:44;;;;;;;11.00;10.70;;;;;;;-141.22;100.00;65034.22;4955123;29;20470;-44
2023/03/08 00:06:14;;;;;;;11.20;10.80;;;;;;;-141.22;100.00;65034.22;4955608;29;20436;-42
2023/03/08 00:08:42;;;;;;;11.73;11.07;;;;;;;-141.22;100.00;65034.22;4955276;29;20789;-43
2023/03/08 00:11:12;;;;;;;13.70;12.90;;;;;;;-141.22;100.00;65034.22;4954899;28;20518;-44
2023/03/08 00:13:40;;;;;;;11.33;10.53;;;;;;;-141.22;100.00;65034.22;4954745;28;20487;-43
2023/03/08 00:16:11;;;;;;;11.63;10.87;;;;;;;-141.22;100.00;65034.22;4958008;29;20439;-46
2023/03/08 00:18:40;;;;;;;11.93;11.40;;;;;;;-141.22;100.00;65034.22;4964210;29;20928;-46
2023/03/08 00:21:11;;;;;;;12.10;11.60;;;;;;;-141.22;100.00;65034.22;4963058;28;20546;-45
2023/03/08 00:23:39;;;;;;;11.83;11.33;;;;;;;-141.22;100.00;65034.22;4963715;28;20475;-46
2023/03/08 00:26:07;;;;;;;11.20;10.77;;;;;;;-141.22;100.00;65034.22;4962931;29;20436;-44
2023/03/08 00:28:35;;;;;;;11.27;10.93;;;;;;;-141.22;100.00;65034.22;4963706;29;20446;-45
2023/03/08 00:31:05;;;;;;;12.93;12.00;;;;;;;-141.22;100.00;65034.22;4963033;28;20471;-45
2023/03/08 00:33:34;;;;;;;11.70;11.30;;;;;;;-141.22;100.00;65034.22;4963402;29;20444;-43
2023/03/08 00:36:04;;;;;;;12.03;11.63;;;;;;;-141.22;100.00;65034.22;4963612;29;20471;-43
2023/03/08 00:38:36;;;;;;;11.30;10.90;;;;;;;-141.22;100.00;65034.22;4963300;29;20428;-46
2023/03/08 00:41:04;;;;;;;11.53;11.17;;;;;;;-141.22;100.00;65034.22;4962882;28;20845;-43
2023/03/08 00:43:32;;;;;;;12.63;12.00;;;;;;;-141.22;100.00;65034.22;4962736;29;20479;-46
2023/03/08 00:45:59;;;;;;;13.03;12.30;;;;;;;-141.22;100.00;65034.22;4962553;29;20432;-45
2023/03/08 00:48:28;;;;;;;13.13;12.53;;;;;;;-141.22;100.00;65034.22;4962320;29;20436;-44
2023/03/08 00:50:56;;;;;;;14.93;12.60;;;;;;;-141.22;100.00;65034.22;4962600;28;21039;-45
2023/03/08 00:53:23;;;;;;;12.00;11.60;;;;;;;-141.22;100.00;65034.22;4961350;29;20452;-47
2023/03/08 00:55:54;;;;;;;11.83;11.33;;;;;;;-141.22;100.00;65034.22;4962757;29;20439;-45
2023/03/08 00:58:23;;;;;;;12.37;11.40;;;;;;;-141.22;100.00;65034.22;4962303;29;20526;-47
2023/03/08 01:00:51;;;;;;;11.47;10.97;;;;;;;-141.22;100.00;65034.22;4961532;28;20491;-44
2023/03/08 01:03:20;;;;;;;11.50;11.10;;;;;;;-141.22;100.00;65034.22;4961951;29;20506;-46
2023/03/08 01:05:50;;;;;;;12.20;11.57;;;;;;;-141.22;100.00;65034.22;4962197;29;20475;-45
2023/03/08 01:08:18;;;;;;;12.97;11.80;;;;;;;-141.22;100.00;65034.22;4961539;29;21012;-46
2023/03/08 01:10:51;;;;;;;12.10;11.70;;;;;;;-141.22;100.00;65034.22;4961316;28;20462;-44
2023/03/08 01:13:21;;;;;;;12.70;12.10;;;;;;;-141.22;100.00;65034.22;4962016;29;21028;-43
2023/03/08 01:15:49;;;;;;;12.80;12.33;;;;;;;-141.22;100.00;65034.22;4962599;29;20458;-44
2023/03/08 01:18:16;;;;;;;13.27;11.90;;;;;;;-141.22;100.00;65034.22;4961897;29;20432;-46
2023/03/08 01:20:44;;;;;;;13.20;12.27;;;;;;;-141.22;100.00;65034.22;4961778;28;20471;-44
2023/03/08 01:23:12;;;;;;;12.83;12.40;;;;;;;-141.22;100.00;65034.22;4962187;29;20466;-45
2023/03/08 01:25:39;;;;;;;13.03;12.53;;;;;;;-141.22;100.00;65034.22;4962261;29;20876;-45
2023/03/08 01:28:07;;;;;;;12.80;12.30;;;;;;;-141.22;100.00;65034.22;4962461;29;20440;-48
2023/03/08 01:30:36;;;;;;;13.07;12.47;;;;;;;-141.22;100.00;65034.22;4961669;28;20459;-47
2023/03/08 01:33:04;;;;;;;13.40;12.67;;;;;;;-141.22;100.00;65034.22;4961343;28;20463;-43
2023/03/08 01:35:31;;;;;;;13.47;13.03;;;;;;;-141.22;100.00;65034.22;4962390;29;20527;-44
2023/03/08 01:37:59;;;;;;;14.07;13.20;;;;;;;-141.22;100.00;65034.22;4962159;29;20464;-44
2023/03/08 01:40:27;;;;;;;14.20;13.60;;;;;;;-141.22;100.00;65034.22;4961951;28;20522;-44
2023/03/08 01:42:55;;;;;;;14.43;13.90;;;;;;;-141.22;100.00;65034.22;4961479;29;20471;-45
2023/03/08 01:46:04;;;;;;;15.33;14.50;;;;;;;-141.22;100.00;65034.22;4961826;29;20443;-49
2023/03/08 01:48:37;;;;;;;15.50;14.50;;;;;;;-141.22;100.00;65034.22;4962040;29;20438;-46
2023/03/08 01:51:07;;;;;;;14.93;14.43;;;;;;;-141.22;100.00;65034.22;4961264;28;20475;-46
2023/03/08 01:53:38;;;;;;;15.97;15.37;;;;;;;-141.22;100.00;65034.22;4960921;29;20462;-48
2023/03/08 01:56:08;;;;;;;15.80;15.20;;;;;;;-141.22;100.00;65034.22;4961889;29;20471;-48
2023/03/08 01:58:37;;;;;;;14.60;14.10;;;;;;;-141.22;100.00;65034.22;4961411;29;20467;-50
2023/03/08 02:01:06;;;;;;;15.67;14.97;;;;;;;-141.22;100.00;65034.22;4960891;28;20476;-50
2023/03/08 02:03:34;;;;;;;16.37;15.67;;;;;;;-141.22;100.00;65034.22;4961598;29;20492;-46
2023/03/08 02:06:02;;;;;;;15.00;14.40;;;;;;;-141.22;100.00;65034.22;4961788;29;20464;-47
2023/03/08 02:08:31;;;;;;;15.77;15.30;;;;;;;-141.22;100.00;65034.22;4961477;29;20490;-51
2023/03/08 02:11:00;;;;;;;15.60;14.90;;;;;;;-141.22;100.00;65034.22;4960098;28;21060;-49
2023/03/08 02:13:28;;;;;;;15.53;14.77;;;;;;;-141.22;100.00;65034.22;4960756;29;20460;-45
2023/03/08 02:15:58;;;;;;;16.03;15.33;;;;;;;-141.22;100.00;65034.22;4961191;29;20530;-45
2023/03/08 02:18:27;;;;;;;16.13;15.43;;;;;;;-141.22;100.00;65034.22;4959822;29;20446;-46
2023/03/08 02:20:55;;;;;;;15.47;14.97;;;;;;;-141.22;100.00;65034.22;4959794;28;20484;-43
2023/03/08 02:23:25;;;;;;;16.53;15.53;;;;;;;-141.22;100.00;65034.22;4960353;29;20460;-49
2023/03/08 02:25:55;;;;;;;17.07;15.43;;;;;;;-141.22;100.00;65034.22;4960284;29;20432;-44
2023/03/08 02:28:25;;;;;;;15.63;15.13;;;;;;;-141.22;100.00;65034.22;4960145;29;20535;-47
2023/03/08 02:30:54;;;;;;;16.57;15.70;;;;;;;-141.22;100.00;65034.22;4959799;28;20459;-45
2023/03/08 02:33:22;;;;;;;15.33;14.83;;;;;;;-141.22;100.00;65034.22;4959703;28;20495;-44
2023/03/08 02:35:51;;;;;;;16.93;16.07;;;;;;;-141.22;100.00;65034.22;4961151;29;21028;-44
2023/03/08 02:38:21;;;;;;;16.43;15.63;;;;;;;-141.22;100.00;65034.22;4960734;28;20498;-43
2023/03/08 02:40:51;;;;;;;15.40;14.77;;;;;;;-141.22;100.00;65034.22;4959600;28;20479;-43
2023/03/08 02:43:20;;;;;;;15.87;15.37;;;;;;;-141.22;100.00;65034.22;4959906;29;20483;-48
2023/03/08 02:45:48;;;;;;;16.00;15.33;;;;;;;-141.22;100.00;65034.22;4961194;29;20450;-44
2023/03/08 02:48:16;;;;;;;16.30;15.80;;;;;;;-141.22;100.00;65034.22;4961222;29;20432;-49
2023/03/08 02:50:44;;;;;;;17.30;16.60;;;;;;;-141.22;100.00;65034.22;4959505;28;20467;-51
2023/03/08 02:53:12;;;;;;;16.30;15.80;;;;;;;-141.22;100.00;65034.22;4960128;29;20471;-46
2023/03/08 02:55:40;;;;;;;15.87;15.30;;;;;;;-141.22;100.00;65034.22;4960888;29;20443;-49
2023/03/08 02:58:10;;;;;;;16.40;15.60;;;;;;;-141.22;100.00;65034.22;4960412;29;20463;-48
2023/03/08 03:00:38;;;;;;;17.00;16.37;;;;;;;-141.22;100.00;65034.22;4960431;28;20881;-45
2023/03/08 03:03:06;;;;;;;18.37;17.47;;;;;;;-141.22;100.00;65034.22;4960686;29;20470;-44
2023/03/08 03:05:34;;;;;;;16.87;16.27;;;;;;;-141.22;100.00;65034.22;4960657;29;20539;-46
2023/03/08 03:08:02;;;;;;;17.90;17.20;;;;;;;-141.22;100.00;65034.22;4961170;29;20439;-46
2023/03/08 03:10:29;;;;;;;17.30;16.60;;;;;;;-141.22;100.00;65034.22;4960142;28;20471;-44
2023/03/08 03:12:57;;;;;;;19.87;18.63;;;;;;;-141.22;100.00;65034.22;4960819;29;20455;-48
2023/03/08 03:15:26;;;;;;;18.67;17.97;;;;;;;-141.22;100.00;65034.22;4961178;29;20432;-45
2023/03/08 03:17:54;;;;;;;19.23;18.13;;;;;;;-141.22;100.00;65034.22;4961553;29;20989;-43
2023/03/08 03:20:22;;;;;;;19.30;18.70;;;;;;;-141.22;100.00;65034.22;4960534;28;20451;-46
2023/03/08 03:22:50;;;;;;;19.63;18.90;;;;;;;-141.22;100.00;65034.22;4961837;28;20542;-47
2023/03/08 03:25:17;;;;;;;20.03;19.43;;;;;;;-141.22;100.00;65034.22;4963682;29;20446;-47
2023/03/08 03:27:45;;;;;;;20.20;19.40;;;;;;;-141.22;100.00;65034.22;4964369;29;20459;-49
2023/03/08 03:30:13;;;;;;;21.30;20.40;;;;;;;-141.22;100.00;65034.22;4963789;28;20480;-47
2023/03/08 03:32:42;;;;;;;22.03;20.87;;;;;;;-141.22;100.00;65034.22;4964706;29;20455;-46
2023/03/08 03:35:10;;;;;;;21.33;20.60;;;;;;;-141.22;100.00;65034.22;4963725;29;20450;-44
2023/03/08 03:37:38;;;;;;;22.30;21.40;;;;;;;-141.22;100.00;65034.22;4965111;28;20435;-44
2023/03/08 03:40:07;;;;;;;21.30;20.70;;;;;;;-141.22;100.00;65034.22;4963275;28;20428;-48
2023/03/08 03:42:35;;;;;;;21.10;20.30;;;;;;;-141.22;100.00;65034.22;4963597;29;20479;-45
2023/03/08 03:45:02;;;;;;;20.87;20.07;;;;;;;-141.22;100.00;65034.22;4963370;29;20446;-48
2023/03/08 03:47:30;;;;;;;23.10;21.87;;;;;;;-141.22;100.00;65034.22;4963392;29;20460;-45
2023/03/08 03:49:59;;;;;;;24.87;24.00;;;;;;;-141.22;100.00;65034.22;4962673;28;20462;-47
2023/03/08 03:52:27;;;;;;;26.97;25.67;;;;;;;-141.22;100.00;65034.22;4963435;28;20444;-45
2023/03/08 03:54:54;;;;;;;29.40;28.37;;;;;;;-141.22;100.00;65034.22;4964171;29;20503;-46
2023/03/08 03:57:22;;;;;;;28.63;27.63;;;;;;;-141.22;100.00;65034.22;4964472;29;20438;-44
2023/03/08 03:59:50;;;;;;;29.07;28.07;;;;;;;-141.22;100.00;65034.22;4962661;28;20451;-48
2023/03/08 04:02:17;;;;;;;31.37;30.07;;;;;;;-141.22;100.00;65034.22;4962192;28;20476;-46
2023/03/08 04:04:48;;;;;;;30.60;29.40;;;;;;;-141.22;100.00;65034.22;4962918;28;20443;-46
2023/03/08 04:07:17;;;;;;;33.83;32.43;;;;;;;-141.22;100.00;65034.22;4964008;28;20428;-44
2023/03/08 04:09:46;;;;;;;33.50;32.00;;;;;;;-141.22;100.00;65034.22;4962901;28;20443;-46
2023/03/08 04:12:14;;;;;;;41.67;39.77;;;;;;;-141.22;100.00;65034.22;4962463;28;20546;-45
2023/03/08 04:14:42;;;;;;;44.10;42.70;;;;;;;-141.22;100.00;65034.22;4963070;28;20515;-47
2023/03/08 04:17:10;;;;;;;47.30;45.80;;;;;;;-141.22;100.00;65034.22;4963167;28;20503;-44
2023/03/08 04:19:37;;;;;;;54.47;52.67;;;;;;;-141.22;100.00;65034.22;4962882;28;20504;-50
2023/03/08 04:22:05;;;;;;;52.33;50.40;;;;;;;-141.22;100.00;65034.22;4961658;28;20487;-48
2023/03/08 04:24:34;;;;;;;56.23;54.23;;;;;;;-141.22;100.00;65034.22;4961325;28;20444;-44
2023/03/08 04:27:02;;;;;;;56.67;54.67;;;;;;;-141.22;100.00;65034.22;4962628;28;20430;-48
2023/03/08 04:29:30;;;;;;;60.10;58.00;;;;;;;-141.22;100.00;65034.22;4963096;28;20450;-44
2023/03/08 04:31:59;;;;;;;63.73;61.33;;;;;;;-141.22;100.00;65034.22;4961627;28;20467;-47
2023/03/08 04:34:27;;;;;;;64.90;62.70;;;;;;;-141.22;100.00;65034.22;4962057;28;20455;-46
2023/03/08 04:36:55;;;;;;;67.17;65.00;;;;;;;-141.22;100.00;65034.22;4963032;28;20446;-46
2023/03/08 04:39:22;;;;;;;72.23;69.93;;;;;;;-141.22;100.00;65034.22;4963270;28;20446;-47
2023/03/08 04:41:51;;;;;;;63.70;61.70;;;;;;;-141.22;100.00;65034.22;4962595;28;20480;-47
2023/03/08 04:44:19;;;;;;;73.00;70.70;;;;;;;-141.22;100.00;65034.22;4963012;28;20456;-49
2023/03/08 04:46:47;;;;;;;75.07;72.57;;;;;;;-141.22;100.00;65034.22;4963281;28;20440;-44
2023/03/08 04:49:15;;;;;;;66.70;64.60;;;;;;;-141.22;100.00;65034.22;4962295;28;20439;-44
2023/03/08 04:51:42;;;;;;;66.87;64.37;;;;;;;-141.22;100.00;65034.22;4961248;28;20539;-46
2023/03/08 04:54:10;;;;;;;64.23;62.10;;;;;;;-141.22;100.00;65034.22;4962498;28;20523;-46
2023/03/08 04:56:38;;;;;;;56.80;54.87;;;;;;;-141.22;100.00;65034.22;4961861;29;20511;-47
2023/03/08 04:59:07;;;;;;;52.50;50.70;;;;;;;-141.22;100.00;65034.22;4962592;29;20436;-46
2023/03/08 05:01:35;;;;;;;50.03;47.80;;;;;;;-141.22;100.00;65034.22;4961784;28;20499;-43
2023/03/08 05:04:02;;;;;;;49.20;47.60;;;;;;;-141.22;100.00;65034.22;4962441;29;20478;-45
2023/03/08 05:06:30;;;;;;;52.63;49.47;;;;;;;-141.22;100.00;65034.22;4962073;29;20471;-44
2023/03/08 05:08:58;;;;;;;46.50;44.77;;;;;;;-141.22;100.00;65034.22;4961800;28;20442;-46
2023/03/08 05:11:27;;;;;;;47.60;46.07;;;;;;;-141.22;100.00;65034.22;4961538;28;20479;-44
2023/03/08 05:13:56;;;;;;;46.77;45.27;;;;;;;-141.22;100.00;65034.22;4962123;29;20514;-48
2023/03/08 05:16:27;;;;;;;46.33;44.60;;;;;;;-141.22;100.00;65034.22;4962050;29;20471;-46
2023/03/08 05:18:55;;;;;;;43.70;42.30;;;;;;;-141.22;100.00;65034.22;4961833;29;20464;-48
2023/03/08 05:21:23;;;;;;;42.67;41.07;;;;;;;-141.22;100.00;65034.22;4962197;28;20478;-45
2023/03/08 05:23:50;;;;;;;43.33;41.53;;;;;;;-141.22;100.00;65034.22;4960969;29;20510;-45
2023/03/08 05:26:19;;;;;;;40.40;38.67;;;;;;;-141.22;100.00;65034.22;4962017;29;20860;-47
2023/03/08 05:28:46;;;;;;;40.63;38.40;;;;;;;-141.22;100.00;65034.22;4961420;29;20440;-48
2023/03/08 05:31:15;;;;;;;37.80;36.60;;;;;;;-141.22;100.00;65034.22;4961754;28;20495;-45
2023/03/08 05:33:46;;;;;;;35.60;34.40;;;;;;;-141.22;100.00;65034.22;4962141;29;20455;-48
2023/03/08 05:36:15;;;;;;;36.17;34.87;;;;;;;-141.22;100.00;65034.22;4962165;29;20431;-47
2023/03/08 05:38:43;;;;;;;32.57;31.20;;;;;;;-141.22;100.00;65034.22;4961972;29;21044;-44
2023/03/08 05:41:14;;;;;;;33.43;32.20;;;;;;;-141.22;100.00;65034.22;4961536;28;20993;-47
2023/03/08 05:43:42;;;;;;;28.80;27.90;;;;;;;-141.22;100.00;65034.22;4961323;29;20475;-52
2023/03/08 05:46:12;;;;;;;28.57;27.37;;;;;;;-141.22;100.00;65034.22;4961972;28;20443;-47
2023/03/08 05:48:40;;;;;;;26.27;25.37;;;;;;;-141.22;100.00;65034.22;4962212;29;20463;-44
2023/03/08 05:51:12;;;;;;;27.27;26.37;;;;;;;-141.22;100.00;65034.22;4960478;28;20463;-46
2023/03/08 05:53:40;;;;;;;26.40;25.20;;;;;;;-141.22;100.00;65034.22;4962105;29;20451;-49
2023/03/08 05:56:10;;;;;;;25.23;24.30;;;;;;;-141.22;100.00;65034.22;4962211;29;20443;-44
2023/03/08 05:58:38;;;;;;;24.90;23.60;;;;;;;-141.22;100.00;65034.22;4962103;29;20440;-50
2023/03/08 06:01:10;;;;;;;25.20;24.23;;;;;;;-141.22;100.00;65034.22;4961171;28;20452;-45
2023/03/08 06:03:38;;;;;;;25.97;24.80;;;;;;;-141.22;100.00;65034.22;4962304;28;20511;-50
2023/03/08 06:06:05;;;;;;;24.50;23.30;;;;;;;-141.22;100.00;65034.22;4962375;29;20451;-44
2023/03/08 06:08:35;;;;;;;28.60;26.60;;;;;;;-141.22;100.00;65034.22;4961645;29;20450;-44
2023/03/08 06:11:03;;;;;;;29.30;27.70;;;;;;;-141.22;100.00;65034.22;4961467;28;20523;-46
2023/03/08 06:13:30;;;;;;;34.67;29.90;;;;;;;-141.22;100.00;65034.22;4961720;28;20462;-47
2023/03/08 06:15:59;;;;;;;58.57;34.63;;;;;;;-141.22;100.00;65034.22;4960178;29;20443;-45
2023/03/08 06:18:27;;;;;;;36.93;33.83;;;;;;;-141.22;100.00;65034.22;4953080;28;20444;-45
2023/03/08 06:20:57;;;;;;;62.63;38.50;;;;;;;-141.22;100.00;65034.22;4952743;28;20452;-42
2023/03/08 06:23:25;;;;;;;99.67;41.50;;;;;;;-141.22;100.00;65034.22;4953134;29;20483;-45
2023/03/08 06:25:55;;;;;;;58.13;38.80;;;;;;;-141.22;100.00;65034.22;4953346;29;20447;-44
2023/03/08 06:28:23;;;;;;;43.00;39.27;;;;;;;-141.22;100.00;65034.22;4953015;29;20448;-44
2023/03/08 06:30:51;;;;;;;45.63;41.13;;;;;;;-141.22;100.00;65034.22;4952681;28;20474;-44
2023/03/08 06:33:21;;;;;;;47.20;44.50;;;;;;;-141.22;100.00;65034.22;4952952;29;20539;-44
2023/03/08 06:35:56;;;;;;;50.37;48.17;;;;;;;-141.22;100.00;65034.22;4953257;29;20440;-42
2023/03/08 06:38:25;;;;;;;46.87;45.03;;;;;;;-141.22;100.00;65034.22;4953051;29;20427;-44
2023/03/08 06:40:57;;;;;;;46.30;44.53;;;;;;;-141.22;100.00;65034.22;4952444;28;20866;-46
2023/03/08 06:43:26;;;;;;;45.60;43.90;;;;;;;-141.22;100.00;65034.22;4952455;29;20491;-44
2023/03/08 06:45:54;;;;;;;47.53;45.53;;;;;;;-141.22;100.00;65034.22;4952938;29;20489;-46
2023/03/08 06:48:22;;;;;;;43.03;41.43;;;;;;;-141.22;100.00;65034.22;4953090;28;20424;-45
2023/03/08 06:50:50;;;;;;;45.77;43.73;;;;;;;-141.22;100.00;65034.22;4952381;28;20459;-45
2023/03/08 06:53:17;;;;;;;41.53;39.63;;;;;;;-141.22;100.00;65034.22;4952731;28;20456;-43
2023/03/08 06:55:45;;;;;;;41.10;39.10;;;;;;;-141.22;100.00;65034.22;4951937;29;20474;-46
2023/03/08 06:58:14;;;;;;;38.27;36.77;;;;;;;-141.22;100.00;65034.22;4954862;28;20432;-45
2023/03/08 07:00:42;;;;;;;36.70;35.30;;;;;;;-141.22;100.00;65034.22;4956499;28;20467;-46
2023/03/08 07:03:11;;;;;;;34.13;32.93;;;;;;;-141.22;100.00;65034.22;4956371;28;20830;-46
2023/03/08 07:05:39;;;;;;;34.73;33.53;;;;;;;-141.22;100.00;65034.22;4955767;29;20436;-46
2023/03/08 07:08:07;;;;;;;34.00;32.80;;;;;;;-141.22;100.00;65034.22;4956668;29;20446;-46
2023/03/08 07:10:34;;;;;;;31.40;30.30;;;;;;;-141.22;100.00;65034.22;4956070;28;20455;-46
2023/03/08 07:13:02;;;;;;;32.97;31.77;;;;;;;-141.22;100.00;65034.22;4956195;29;20969;-46
2023/03/08 07:15:31;;;;;;;31.13;29.87;;;;;;;-141.22;100.00;65034.22;4956752;29;20570;-47
2023/03/08 07:17:59;;;;;;;29.50;28.60;;;;;;;-141.22;100.00;65034.22;4956650;29;20523;-44
2023/03/08 07:20:27;;;;;;;29.97;28.97;;;;;;;-141.22;100.00;65034.22;4955845;28;20799;-49
2023/03/08 07:22:56;;;;;;;32.10;31.00;;;;;;;-141.22;100.00;65034.22;4955939;28;20459;-46
2023/03/08 07:25:24;;;;;;;31.00;29.90;;;;;;;-141.22;100.00;65034.22;4956642;29;20439;-43
2023/03/08 07:27:52;;;;;;;34.53;33.23;;;;;;;-141.22;100.00;65034.22;4956186;29;20436;-44
2023/03/08 07:30:20;;;;;;;35.83;34.33;;;;;;;-141.22;100.00;65034.22;4955820;28;20464;-47
2023/03/08 07:32:52;;;;;;;36.93;35.50;;;;;;;-141.22;100.00;65034.22;4955692;29;20462;-44
2023/03/08 07:35:20;;;;;;;37.50;36.10;;;;;;;-141.22;100.00;65034.22;4955871;29;20806;-46
2023/03/08 07:37:48;;;;;;;38.10;36.50;;;;;;;-141.22;100.00;65034.22;4956326;29;20439;-47
2023/03/08 07:40:17;;;;;;;38.97;37.37;;;;;;;-141.22;100.00;65034.22;4955578;28;20461;-46
2023/03/08 07:42:45;;;;;;;37.77;36.20;;;;;;;-141.22;100.00;65034.22;4955456;29;20456;-45
2023/03/08 07:45:13;;;;;;;38.93;36.87;;;;;;;-141.22;100.00;65034.22;4955850;29;20842;-45
2023/03/08 07:47:41;;;;;;;37.07;35.30;;;;;;;-141.22;100.00;65034.22;4955908;29;20431;-47
2023/03/08 07:50:11;;;;;;;38.43;36.50;;;;;;;-141.22;100.00;65034.22;4955563;28;20440;-49
2023/03/08 07:52:39;;;;;;;36.37;34.97;;;;;;;-141.22;100.00;65034.22;4955243;29;21067;-46
2023/03/08 07:55:08;;;;;;;36.37;34.40;;;;;;;-141.22;100.00;65034.22;4955739;29;20972;-47
2023/03/08 07:57:35;;;;;;;36.37;34.47;;;;;;;-141.22;100.00;65034.22;4955759;29;20455;-43
2023/03/08 08:00:07;;;;;;;35.53;33.93;;;;;;;-141.22;100.00;65034.22;4955141;28;20431;-46
2023/03/08 08:02:34;;;;;;;37.20;35.37;;;;;;;-141.22;100.00;65034.22;4955184;29;20467;-46
2023/03/08 08:05:02;;;;;;;35.87;34.17;;;;;;;-141.22;100.00;65034.22;4955421;29;20475;-47
2023/03/08 08:07:32;;;;;;;34.73;32.70;;;;;;;-141.22;100.00;65034.22;4955720;28;20432;-44
2023/03/08 08:09:59;;;;;;;33.10;31.90;;;;;;;-141.22;100.00;65034.22;4953867;28;20428;-44
2023/03/08 08:12:27;;;;;;;32.17;30.67;;;;;;;-141.22;100.00;65034.22;4955157;28;20439;-43
2023/03/08 08:14:54;;;;;;;31.07;29.97;;;;;;;-141.22;100.00;65034.22;4955169;29;20511;-44
2023/03/08 08:17:22;;;;;;;30.07;28.77;;;;;;;-141.22;100.00;65034.22;4955487;29;20432;-48
2023/03/08 08:19:50;;;;;;;31.70;30.30;;;;;;;-141.22;100.00;65034.22;4955399;29;20435;-44
2023/03/08 08:22:18;;;;;;;29.33;28.23;;;;;;;-141.22;100.00;65034.22;4954469;28;20842;-46
2023/03/08 08:24:47;;;;;;;28.87;27.50;;;;;;;-141.22;100.00;65034.22;4955013;29;20934;-47
2023/03/08 08:27:14;;;;;;;27.83;26.83;;;;;;;-141.22;100.00;65034.22;4955168;29;20435;-46
2023/03/08 08:29:44;;;;;;;27.20;26.30;;;;;;;-141.22;100.00;65034.22;4955463;29;20940;-48
2023/03/08 08:32:12;;;;;;;26.63;25.63;;;;;;;-141.22;100.00;65034.22;4954559;28;20500;-50
2023/03/08 08:34:40;;;;;;;26.40;25.30;;;;;;;-141.22;100.00;65034.22;4955249;29;20910;-46
2023/03/08 08:37:08;;;;;;;27.37;26.33;;;;;;;-141.22;100.00;65034.22;4955437;29;20440;-44
2023/03/08 08:39:35;;;;;;;25.80;24.83;;;;;;;-141.22;100.00;65034.22;4954970;29;20515;-51
2023/03/08 08:42:05;;;;;;;25.80;24.70;;;;;;;-141.22;100.00;65034.22;4954414;28;20460;-44
2023/03/08 08:44:32;;;;;;;27.10;25.90;;;;;;;-141.22;100.00;65034.22;4954760;28;20479;-45
2023/03/08 08:47:00;;;;;;;27.67;26.47;;;;;;;-141.22;100.00;65034.22;4955025;29;20439;-47
2023/03/08 08:49:28;;;;;;;28.70;27.30;;;;;;;-141.22;100.00;65034.22;4955035;29;20443;-49
2023/03/08 08:51:55;;;;;;;27.90;26.70;;;;;;;-141.22;100.00;65034.22;4954397;28;20562;-46
2023/03/08 08:54:23;;;;;;;27.73;26.53;;;;;;;-141.22;100.00;65034.22;4954729;28;20456;-46
2023/03/08 08:56:51;;;;;;;28.43;26.93;;;;;;;-141.22;100.00;65034.22;4954349;29;20508;-50
2023/03/08 08:59:20;;;;;;;26.77;25.53;;;;;;;-141.22;100.00;65034.22;4954880;29;20486;-47
2023/03/08 09:01:47;;;;;;;27.80;26.50;;;;;;;-141.22;100.00;65034.22;4954233;28;20459;-49
2023/03/08 09:04:16;;;;;;;26.23;24.73;;;;;;;-141.22;100.00;65034.22;4954186;29;20989;-46
2023/03/08 09:06:44;;;;;;;27.33;26.00;;;;;;;-141.22;100.00;65034.22;4954521;29;20499;-46
2023/03/08 09:09:12;;;;;;;26.07;24.80;;;;;;;-141.22;100.00;65034.22;4954512;29;20432;-44
2023/03/08 09:11:39;;;;;;;25.57;24.20;;;;;;;-141.22;100.00;65034.22;4954123;28;21020;-47
2023/03/08 09:14:22;;;;;;;22.30;21.40;;;;;;;-141.22;100.00;65034.22;4954432;29;20451;-49
2023/03/08 09:16:51;;;;;;;22.07;21.07;;;;;;;-141.22;100.00;65034.22;4954177;29;20439;-46
2023/03/08 09:19:19;;;;;;;20.57;19.77;;;;;;;-141.22;100.00;65034.22;4954337;29;20798;-48
2023/03/08 09:21:47;;;;;;;20.53;19.60;;;;;;;-141.22;100.00;65034.22;4953429;28;20559;-48
2023/03/08 09:24:15;;;;;;;20.13;19.33;;;;;;;-141.22;100.00;65034.22;4953695;29;20479;-46
2023/03/08 09:26:43;;;;;;;20.17;19.37;;;;;;;-141.22;100.00;65034.22;4954342;29;20440;-45
2023/03/08 09:29:11;;;;;;;20.60;19.70;;;;;;;-141.22;100.00;65034.22;4954094;29;20538;-44
2023/03/08 09:31:44;;;;;;;19.30;18.50;;;;;;;-141.22;100.00;65034.22;4953399;28;20498;-48
2023/03/08 09:34:14;;;;;;;19.00;18.13;;;;;;;-141.22;100.00;65034.22;4953841;29;20806;-47
2023/03/08 09:36:42;;;;;;;17.13;16.20;;;;;;;-141.22;100.00;65034.22;4953816;29;20958;-48
2023/03/08 09:39:12;;;;;;;17.40;16.70;;;;;;;-141.22;100.00;65034.22;4954166;29;20447;-44
2023/03/08 09:41:52;;;;;;;15.17;14.63;;;;;;;-141.22;100.00;65034.22;4953444;28;20519;-45
2023/03/08 09:44:50;;;;;;;15.50;14.73;;;;;;;-141.22;100.00;65034.22;4953280;29;20479;-49
2023/03/08 09:47:31;;;;;;;14.50;13.90;;;;;;;-141.22;100.00;65034.22;4953852;29;20440;-50
2023/03/08 09:50:04;;;;;;;15.60;15.00;;;;;;;-141.22;100.00;65034.22;4953106;28;20959;-45
2023/03/08 09:52:37;;;;;;;15.87;15.17;;;;;;;-141.22;100.00;65034.22;4953333;28;20435;-44
2023/03/08 09:55:11;;;;;;;14.63;13.93;;;;;;;-141.22;100.00;65034.22;4954139;29;21039;-50
2023/03/08 09:57:45;;;;;;;14.90;14.40;;;;;;;-141.22;100.00;65034.22;4953843;29;20435;-49
2023/03/08 10:00:20;;;;;;;15.87;15.17;;;;;;;-141.22;100.00;65034.22;4953442;28;20514;-47
2023/03/08 10:03:01;;;;;;;15.43;14.43;;;;;;;-141.22;100.00;65034.22;4953180;28;20898;-44
2023/03/08 10:05:36;;;;;;;15.23;14.20;;;;;;;-141.22;100.00;65034.22;4953385;28;20479;-46
2023/03/08 10:08:11;;;;;;;15.20;14.50;;;;;;;-141.22;100.00;65034.22;4953365;29;21414;-47
2023/03/08 10:10:48;;;;;;;15.63;15.03;;;;;;;-141.22;100.00;65034.22;4953207;28;20874;-45
2023/03/08 10:13:27;;;;;;;15.33;14.53;;;;;;;-141.22;100.00;65034.22;4953199;29;20703;-51
2023/03/08 10:16:04;;;;;;;15.83;14.83;;;;;;;-141.22;100.00;65034.22;4953684;28;20424;-47
2023/03/08 10:18:38;;;;;;;16.30;15.40;;;;;;;-141.22;100.00;65034.22;4953685;29;20444;-48
2023/03/08 10:21:09;;;;;;;15.57;14.77;;;;;;;-141.22;100.00;65034.22;4953031;28;20463;-47
2023/03/08 10:23:40;;;;;;;14.93;14.03;;;;;;;-141.22;100.00;65034.22;4953300;28;20444;-48
2023/03/08 10:26:12;;;;;;;15.40;14.30;;;;;;;-141.22;100.00;65034.22;4953123;29;20471;-49
2023/03/08 10:28:40;;;;;;;16.93;15.80;;;;;;;-141.22;100.00;65034.22;4953333;29;20482;-48
2023/03/08 10:31:20;;;;;;;17.17;15.97;;;;;;;-141.22;100.00;65034.22;4952623;28;20463;-51
2023/03/08 10:33:52;;;;;;;16.10;15.20;;;;;;;-141.22;100.00;65034.22;4952446;29;20451;-50
2023/03/08 10:36:22;;;;;;;15.80;14.80;;;;;;;-141.22;100.00;65034.22;4953124;29;20432;-49
2023/03/08 10:39:01;;;;;;;15.53;14.73;;;;;;;-141.22;100.00;65034.22;4953031;29;20933;-46
2023/03/08 10:41:36;;;;;;;14.63;13.93;;;;;;;-141.22;100.00;65034.22;4952480;28;20554;-48
2023/03/08 10:44:04;;;;;;;13.67;13.07;;;;;;;-141.22;100.00;65034.22;4952820;29;20486;-48
2023/03/08 10:46:32;;;;;;;16.30;14.97;;;;;;;-141.22;100.00;65034.22;4953015;29;20522;-47
2023/03/08 10:49:10;;;;;;;15.13;14.07;;;;;;;-141.22;100.00;65034.22;4952735;29;20519;-47
2023/03/08 10:51:37;;;;;;;16.47;15.37;;;;;;;-141.22;100.00;65034.22;4952565;28;20478;-45
2023/03/08 10:54:10;;;;;;;15.73;14.73;;;;;;;-141.22;100.00;65034.22;4952755;29;20461;-50
2023/03/08 10:56:43;;;;;;;15.63;14.80;;;;;;;-141.22;100.00;65034.22;4952616;29;20941;-48
2023/03/08 10:59:18;;;;;;;16.10;15.17;;;;;;;-141.22;100.00;65034.22;4952730;29;21028;-47
2023/03/08 11:01:50;;;;;;;14.43;13.73;;;;;;;-141.22;100.00;65034.22;4952415;28;20467;-45
2023/03/08 11:04:21;;;;;;;14.83;14.13;;;;;;;-141.22;100.00;65034.22;4952651;29;21046;-44